FW9688 Weather Reports


Display with metric or nautical units.
time (UTC)temp
F
wind
direction
speed
MPH
gust
MPH
rain 1hr
in
rain 24hr
in
rain mn
in
humidity
%
barometer
mb
20220626164544 84 64 10.0 16.0 0.00 0.00 0.00 43 1023.8
20220626163036 85 86 8.0 15.0 0.00 0.00 0.00 43 1023.8
20220626161538 84 66 7.0 13.0 0.00 0.00 0.00 43 1023.7
20220626160043 83 105 11.0 16.0 0.00 0.00 0.00 44 1023.7
20220626154538 84 65 10.0 16.0 0.00 0.00 0.00 43 1023.4
20220626153038 84 79 9.0 15.0 0.00 0.00 0.00 44 1023.6
20220626151529 83 71 13.0 17.0 0.00 0.00 0.00 46 1023.5
20220626150041 80 71 11.0 19.0 0.00 0.00 0.00 51 1023.1
20220626144535 78 65 15.0 21.0 0.00 0.00 0.00 52 1023.0
20220626143035 77 63 16.0 22.0 0.00 0.00 0.00 57 1023.0
20220626141536 76 52 17.0 23.0 0.00 0.00 0.00 58 1022.7
20220626140032 75 63 18.0 24.0 0.00 0.00 0.00 59 1022.7
20220626134538 75 49 16.0 23.0 0.00 0.00 0.00 61 1022.5
20220626133041 74 65 18.0 23.0 0.00 0.00 0.00 62 1022.4
20220626131534 73 53 15.0 23.0 0.00 0.00 0.00 63 1022.0
20220626130037 72 48 17.0 22.0 0.00 0.00 0.00 65 1021.8
20220626124540 72 45 17.0 21.0 0.00 0.00 0.00 66 1021.7
20220626123039 71 49 15.0 19.0 0.00 0.00 0.00 65 1021.7
20220626121539 71 53 15.0 19.0 0.00 0.00 0.00 65 1021.5
20220626120041 71 55 13.0 19.0 0.00 0.00 0.00 65 1021.3
20220626114545 71 49 11.0 15.0 0.00 0.00 0.00 64 1020.9
20220626113034 71 35 10.0 14.0 0.00 0.00 0.00 63 1020.6
20220626111538 71 52 10.0 14.0 0.00 0.00 0.00 62 1020.5
20220626110042 72 46 9.0 13.0 0.00 0.00 0.00 60 1020.4
20220626104535 72 37 10.0 12.0 0.00 0.00 0.00 60 1020.3
20220626103037 72 44 10.0 13.0 0.00 0.00 0.00 59 1020.4
20220626101534 72 57 10.0 15.0 0.00 0.00 0.00 58 1020.2
20220626100036 72 36 11.0 15.0 0.00 0.00 0.00 58 1020.1
20220626094539 72 44 10.0 13.0 0.00 0.00 0.00 57 1020.0
20220626093036 72 50 10.0 13.0 0.00 0.00 0.00 57 1019.8
20220626091539 73 37 10.0 14.0 0.00 0.00 0.00 56 1020.0
20220626090044 73 24 7.0 13.0 0.00 0.00 0.00 55 1020.1
20220626084538 74 26 9.0 15.0 0.00 0.00 0.00 54 1019.9
20220626083047 75 38 12.0 16.0 0.00 0.00 0.00 53 1020.1
20220626081535 75 36 9.0 13.0 0.00 0.00 0.00 52 1020.3
20220626080036 77 5 10.0 17.0 0.00 0.00 0.00 48 1020.4
20220626074541 82 333 5.0 12.0 0.00 0.00 0.00 29 1020.3
20220626073041 79 268 13.0 18.0 0.00 0.00 0.00 31 1020.0
20220626071539 78 315 8.0 10.0 0.00 0.00 0.00 37 1019.7
20220626070036 81 153 8.0 13.0 0.00 0.00 0.00 27 1019.2
20220626064529 81 155 11.0 15.0 0.00 0.00 0.00 26 1018.8
20220626063034 81 153 11.0 15.0 0.00 0.00 0.00 25 1018.8
20220626061536 81 151 11.0 15.0 0.00 0.00 0.00 25 1018.5
20220626060038 81 116 8.0 11.0 0.00 0.00 0.00 25 1018.5
20220626054534 83 101 3.0 8.0 0.00 0.00 0.00 23 1018.5
20220626053033 84 65 2.0 6.0 0.00 0.00 0.00 23 1018.3
20220626051532 85 49 3.0 8.0 0.00 0.00 0.00 22 1018.2
20220626050034 86 62 4.0 10.0 0.00 0.00 0.00 22 1018.1
20220626044534 87 55 3.0 7.0 0.00 0.00 0.00 21 1018.1
20220626043032 88 59 4.0 10.0 0.00 0.00 0.00 20 1018.0
20220626041541 88 59 4.0 10.0 0.00 0.00 0.00 20 1017.8
20220626040034 89 79 5.0 12.0 0.00 0.00 0.00 20 1017.5
20220626034541 89 30 3.0 8.0 0.00 0.00 0.00 19 1017.1
20220626033030 90 46 5.0 9.0 0.00 0.00 0.00 19 1016.8
20220626031538 91 69 5.0 9.0 0.00 0.00 0.00 18 1016.7
20220626030042 91 67 5.0 9.0 0.00 0.00 0.00 18 1016.4
20220626024532 93 71 4.0 9.0 0.00 0.00 0.00 16 1016.1
20220626023028 93 27 3.0 8.0 0.00 0.00 0.00 16 1015.8
20220626021526 94 109 3.0 8.0 0.00 0.00 0.00 16 1015.7
20220626020035 95 61 3.0 8.0 0.00 0.00 0.00 15 1015.6
20220626014542 96 69 4.0 9.0 0.00 0.00 0.00 15 1015.4
20220626013031 96 66 3.0 14.0 0.00 0.00 0.00 15 1015.0
20220626011542 97 67 9.0 21.0 0.00 0.00 0.00 15 1014.9
20220626010034 98 98 5.0 17.0 0.00 0.00 0.00 15 1014.6
20220626004606 99 54 5.0 20.0 0.00 0.00 0.00 14 1014.3
20220626003033 99 347 7.0 22.0 0.00 0.00 0.00 15 1014.2
20220626001528 99 295 7.0 22.0 0.00 0.00 0.00 15 1014.3
20220626000040 101 42 5.0 18.0 0.00 0.00 0.00 14 1014.1
20220625234536 100 332 6.0 16.0 0.00 0.00 0.00 14 1013.9
20220625233036 99 145 8.0 20.0 0.00 0.00 0.00 12 1014.0
20220625231534 97 171 10.0 22.0 0.00 0.00 0.00 14 1014.1
20220625230039 97 168 12.0 25.0 0.00 0.00 0.00 14 1014.1
20220625224544 97 163 8.0 17.0 0.00 0.00 0.00 14 1014.2
20220625223039 100 75 11.0 21.0 0.00 0.00 0.00 14 1014.5
20220625221529 100 156 5.0 16.0 0.00 0.00 0.00 14 1014.6
20220625220035 100 346 10.0 19.0 0.00 0.00 0.00 14 1014.8
20220625214533 101 17 6.0 16.0 0.00 0.00 0.00 15 1014.6
20220625213036 98 162 7.0 21.0 0.00 0.00 0.00 16 1015.1
20220625211536 98 161 7.0 17.0 0.00 0.00 0.00 17 1014.8
20220625210036 97 53 9.0 17.0 0.00 0.00 0.00 17 1014.9
20220625204534 100 113 5.0 15.0 0.00 0.00 0.00 18 1015.0
20220625203037 98 5 5.0 16.0 0.00 0.00 0.00 19 1015.0
20220625201536 96 59 6.0 12.0 0.00 0.00 0.00 19 1015.3
20220625200035 96 16 5.0 12.0 0.00 0.00 0.00 20 1015.4
20220625194534 97 151 7.0 17.0 0.00 0.00 0.00 19 1015.6
20220625193034 96 66 5.0 13.0 0.00 0.00 0.00 21 1016.0
20220625191528 96 83 4.0 15.0 0.00 0.00 0.00 21 1016.0
20220625190051 94 165 9.0 16.0 0.00 0.00 0.00 23 1016.2
20220625184536 96 165 3.0 10.0 0.00 0.00 0.00 22 1016.4
20220625183038 95 9 5.0 9.0 0.00 0.00 0.00 23 1016.4
20220625181538 93 101 5.0 14.0 0.00 0.00 0.00 24 1016.7
20220625180033 92 91 6.0 17.0 0.00 0.00 0.00 25 1016.7
20220625174556 92 156 5.0 11.0 0.00 0.00 0.00 25 1016.5
20220625173041 92 40 6.0 15.0 0.00 0.00 0.00 26 1016.6
20220625171535 91 67 6.0 16.0 0.00 0.00 0.00 26 1016.7
20220625170038 91 50 4.0 18.0 0.00 0.00 0.00 27 1016.6